Terminal Aerodrome Forecast
Issued by NWS

Home | Current Version | Previous Version | Graphics & Text | Print | Product List | Glossary On
Versions: 1 2 3 4 5 6 7 8 9 10 11 12 13 14 15 16 17 18 19 20 21
532
FTUS43 KIWX 252203 AAA
TAFSBN
TAF AMD
KSBN 252203Z 2522/2618 31013KT P6SM BKN015 OVC035
      TEMPO 2522/2523 SCT025 BKN030
     FM252300 31013KT P6SM BKN030
     FM260100 31008KT 3SM BR BKN010
     FM260900 29004KT 2SM BR BKN007
     FM261600 19005KT P6SM BKN045=

USA.gov is the U.S. government's official web portal to all federal, state and local government web resources and services.